createdAt,value
2023-03-25T00:00:25.295Z,2.50
2023-03-25T00:02:30.590Z,4.70
2023-03-25T00:04:31.244Z,3.80
2023-03-25T00:06:31.544Z,2.80
2023-03-25T00:08:31.902Z,4.90
2023-03-25T00:10:32.326Z,2.90
2023-03-25T00:12:33.686Z,3.50
2023-03-25T00:14:34.387Z,2.70
2023-03-25T00:16:34.949Z,5.40
2023-03-25T00:18:35.415Z,3.80
2023-03-25T00:20:36.289Z,3.50
2023-03-25T00:22:36.892Z,3.60
2023-03-25T00:24:38.465Z,3.50
2023-03-25T00:28:14.889Z,2.50
2023-03-25T00:30:15.527Z,3.90
2023-03-25T00:32:16.771Z,3.80
2023-03-25T00:34:17.183Z,4.60
2023-03-25T00:36:17.429Z,3.60
2023-03-25T00:38:17.775Z,3.50
2023-03-25T00:40:18.054Z,3.40
2023-03-25T00:42:18.348Z,2.70
2023-03-25T00:44:18.700Z,4.30
2023-03-25T00:46:19.133Z,2.80
2023-03-25T00:48:19.540Z,3.60
2023-03-25T00:50:20.167Z,4.00
2023-03-25T00:52:20.521Z,4.30
2023-03-25T00:54:20.902Z,4.00
2023-03-25T00:57:03.437Z,2.00
2023-03-25T00:59:03.741Z,2.60
2023-03-25T01:01:04.107Z,3.50
2023-03-25T01:03:04.510Z,5.40
2023-03-25T01:05:04.870Z,4.10
2023-03-25T01:07:05.179Z,4.10
2023-03-25T01:09:05.519Z,5.40
2023-03-25T01:11:05.895Z,6.80
2023-03-25T01:13:06.172Z,4.60
2023-03-25T01:15:06.512Z,6.00
2023-03-25T01:17:06.878Z,4.50
2023-03-25T01:19:07.163Z,4.10
2023-03-25T01:21:07.459Z,3.90
2023-03-25T01:23:07.731Z,3.10
2023-03-25T01:25:08.056Z,6.50
2023-03-25T01:27:08.344Z,5.00
2023-03-25T01:29:08.680Z,3.80
2023-03-25T01:31:09.048Z,4.50
2023-03-25T01:33:09.352Z,4.70
2023-03-25T01:35:09.633Z,5.90
2023-03-25T01:37:10.096Z,6.20
2023-03-25T01:39:10.435Z,6.80
2023-03-25T01:41:10.814Z,5.50
2023-03-25T01:43:11.171Z,5.60
2023-03-25T01:45:11.399Z,6.30
2023-03-25T01:47:11.714Z,6.20
2023-03-25T01:49:12.004Z,6.70
2023-03-25T01:51:12.318Z,5.30
2023-03-25T01:53:12.618Z,6.00
2023-03-25T01:55:12.913Z,8.40
2023-03-25T01:57:13.501Z,6.80
2023-03-25T02:00:02.575Z,6.50
2023-03-25T02:02:03.044Z,6.50
2023-03-25T02:04:03.598Z,4.50
2023-03-25T02:06:04.003Z,5.10
2023-03-25T02:08:04.286Z,7.60
2023-03-25T02:10:05.151Z,10.00
2023-03-25T02:12:05.496Z,7.80
2023-03-25T02:14:50.198Z,1.30
2023-03-25T02:16:54.440Z,2.30
2023-03-25T02:19:01.099Z,0.70
2023-03-25T02:22:32.497Z,1.10
2023-03-25T02:25:40.651Z,1.60
2023-03-25T02:27:41.312Z,1.90
2023-03-25T02:29:42.494Z,0.90
2023-03-25T02:31:43.558Z,2.40
2023-03-25T02:34:31.388Z,1.70
2023-03-25T02:37:14.985Z,1.60
2023-03-25T02:39:15.607Z,2.10
2023-03-25T02:41:15.927Z,1.70
2023-03-25T02:43:16.404Z,1.00
2023-03-25T02:46:05.702Z,1.30
2023-03-25T02:48:08.230Z,1.00
2023-03-25T02:50:12.599Z,3.20
2023-03-25T02:52:13.585Z,2.80
2023-03-25T02:55:06.872Z,3.10
2023-03-25T02:58:23.861Z,2.90
2023-03-25T03:01:14.536Z,1.70
2023-03-25T03:03:16.118Z,3.20
2023-03-25T03:05:18.478Z,3.30
2023-03-25T03:07:19.272Z,2.70
2023-03-25T03:10:18.273Z,1.60
2023-03-25T03:13:28.278Z,1.10
2023-03-25T03:16:30.743Z,1.70
2023-03-25T03:18:37.367Z,1.70
2023-03-25T03:21:29.622Z,1.00
2023-03-25T03:24:34.554Z,2.60
2023-03-25T03:26:35.825Z,2.10
2023-03-25T03:29:55.013Z,2.40
2023-03-25T03:32:51.029Z,2.30
2023-03-25T03:35:44.206Z,3.80
2023-03-25T03:37:51.089Z,3.20
2023-03-25T03:41:44.121Z,1.90
2023-03-25T03:46:21.217Z,2.50
2023-03-25T03:51:15.567Z,2.50
2023-03-25T03:54:12.214Z,2.60
2023-03-25T03:57:16.372Z,3.80
2023-03-25T04:02:00.208Z,1.70
2023-03-25T04:05:09.960Z,3.20
2023-03-25T04:08:03.706Z,2.50
2023-03-25T04:11:06.810Z,2.10
2023-03-25T04:14:43.822Z,4.40
2023-03-25T04:19:17.899Z,3.70
2023-03-25T04:23:13.011Z,4.00
2023-03-25T04:25:15.892Z,4.00
2023-03-25T04:27:29.021Z,3.60
2023-03-25T04:31:23.473Z,4.50
2023-03-25T04:34:10.415Z,3.20
2023-03-25T04:37:42.598Z,3.10
2023-03-25T04:40:38.675Z,5.10
2023-03-25T04:43:34.757Z,4.60
2023-03-25T04:45:37.838Z,4.20
2023-03-25T04:47:42.633Z,4.20
2023-03-25T04:49:43.574Z,3.50
2023-03-25T04:52:33.449Z,4.00
2023-03-25T04:54:34.055Z,4.10
2023-03-25T04:57:32.917Z,4.60
2023-03-25T04:59:33.280Z,4.00
2023-03-25T05:02:19.462Z,5.40
2023-03-25T05:04:21.035Z,6.30
2023-03-25T05:06:26.176Z,4.50
2023-03-25T05:08:29.519Z,4.40
2023-03-25T05:10:34.824Z,4.90
2023-03-25T05:12:35.583Z,4.60
2023-03-25T05:14:36.941Z,5.00
2023-03-25T05:18:10.825Z,5.80
2023-03-25T05:20:12.347Z,6.20
2023-03-25T05:22:14.994Z,6.30
2023-03-25T05:25:06.816Z,7.40
2023-03-25T05:27:07.526Z,8.50
2023-03-25T05:29:10.378Z,6.10
2023-03-25T05:31:11.109Z,6.30
2023-03-25T05:33:11.566Z,5.80
2023-03-25T05:35:11.904Z,4.50
2023-03-25T05:37:12.386Z,5.50
2023-03-25T05:39:12.920Z,7.50
2023-03-25T05:41:13.317Z,7.00
2023-03-25T05:44:00.495Z,8.80
2023-03-25T05:46:50.128Z,8.50
2023-03-25T05:48:52.329Z,8.10
2023-03-25T05:50:52.677Z,7.90
2023-03-25T05:53:50.193Z,5.60
2023-03-25T05:55:51.075Z,5.30
2023-03-25T05:57:51.936Z,6.20
2023-03-25T05:59:52.964Z,6.30
2023-03-25T06:01:53.548Z,7.20
2023-03-25T06:04:36.170Z,7.70
2023-03-25T06:06:37.034Z,7.00
2023-03-25T06:09:26.723Z,7.40
2023-03-25T06:11:27.168Z,7.60
2023-03-25T06:13:27.757Z,7.70
2023-03-25T06:15:28.898Z,8.00
2023-03-25T06:17:29.624Z,7.20
2023-03-25T06:20:17.770Z,4.60
2023-03-25T06:22:18.431Z,5.50
2023-03-25T06:24:18.862Z,6.20
2023-03-25T06:26:19.278Z,6.60
2023-03-25T06:28:19.800Z,7.10
2023-03-25T06:31:06.941Z,6.40
2023-03-25T06:33:07.419Z,6.40
2023-03-25T06:35:51.553Z,6.30
2023-03-25T06:37:52.444Z,7.00
2023-03-25T06:40:44.391Z,6.80
2023-03-25T06:43:46.400Z,8.40
2023-03-25T06:45:47.430Z,8.10
2023-03-25T06:47:48.167Z,9.50
2023-03-25T06:49:48.558Z,7.60
2023-03-25T06:52:46.886Z,8.20
2023-03-25T06:54:53.135Z,6.60
2023-03-25T06:56:55.635Z,7.40
2023-03-25T07:08:02.501Z,10.60
2023-03-25T07:14:39.170Z,8.80
2023-03-25T07:16:40.269Z,11.70
2023-03-25T07:19:46.372Z,9.50
2023-03-25T07:23:13.198Z,7.00
2023-03-25T07:25:13.720Z,9.40
2023-03-25T07:27:14.276Z,10.60
2023-03-25T07:29:14.748Z,11.60
2023-03-25T07:31:15.165Z,9.90
2023-03-25T07:33:15.485Z,8.10
2023-03-25T07:35:58.491Z,12.30
2023-03-25T07:37:58.781Z,9.70
2023-03-25T07:39:59.133Z,9.00
2023-03-25T07:41:59.456Z,11.60
2023-03-25T07:43:59.761Z,12.00
2023-03-25T07:46:00.259Z,10.80
2023-03-25T07:48:00.899Z,11.10
2023-03-25T07:50:01.230Z,11.70
2023-03-25T07:52:01.505Z,12.00
2023-03-25T07:54:05.059Z,8.40
2023-03-25T07:56:05.918Z,8.20
2023-03-25T07:58:06.251Z,8.90
2023-03-25T08:00:06.540Z,10.50
2023-03-25T08:02:06.987Z,9.60
2023-03-25T08:04:07.375Z,10.20
2023-03-25T08:06:07.723Z,7.90
2023-03-25T08:08:07.994Z,10.80
2023-03-25T08:10:08.292Z,9.90
2023-03-25T08:12:08.577Z,6.70
2023-03-25T08:14:08.845Z,9.50
2023-03-25T08:16:09.259Z,12.70
2023-03-25T08:18:09.621Z,8.30
2023-03-25T08:20:09.895Z,8.80
2023-03-25T08:22:10.220Z,7.00
2023-03-25T08:24:10.556Z,9.40
2023-03-25T08:26:10.829Z,8.60
2023-03-25T08:28:11.167Z,8.70
2023-03-25T08:30:11.470Z,6.30
2023-03-25T08:32:11.743Z,6.80
2023-03-25T08:34:12.065Z,6.20
2023-03-25T08:36:12.383Z,8.40
2023-03-25T08:38:12.673Z,7.30
2023-03-25T08:40:12.978Z,7.90
2023-03-25T08:42:54.941Z,8.00
2023-03-25T08:44:55.860Z,5.90
2023-03-25T08:46:56.089Z,7.30
2023-03-25T08:48:56.382Z,7.30
2023-03-25T08:50:56.681Z,9.50
2023-03-25T08:52:56.962Z,7.40
2023-03-25T08:54:57.279Z,6.20
2023-03-25T08:56:57.601Z,5.80
2023-03-25T08:58:57.877Z,7.80
2023-03-25T09:00:58.212Z,5.70
2023-03-25T09:02:58.492Z,6.20
2023-03-25T09:04:58.875Z,4.70
2023-03-25T09:07:11.841Z,6.70
2023-03-25T09:09:04.349Z,4.70
2023-03-25T09:11:04.828Z,5.50
2023-03-25T09:13:05.235Z,5.10
2023-03-25T09:15:05.605Z,5.40
2023-03-25T09:17:05.910Z,4.40
2023-03-25T09:19:06.416Z,4.50
2023-03-25T09:21:06.759Z,4.00
2023-03-25T09:23:07.151Z,4.80
2023-03-25T09:25:07.408Z,4.00
2023-03-25T09:27:07.733Z,3.80
2023-03-25T09:29:08.034Z,3.20
2023-03-25T09:31:08.359Z,3.70
2023-03-25T09:33:08.694Z,3.90
2023-03-25T09:35:09.096Z,2.50
2023-03-25T09:37:09.375Z,2.50
2023-03-25T09:39:09.780Z,1.90
2023-03-25T09:41:12.059Z,2.50
2023-03-25T09:43:13.686Z,1.40
2023-03-25T09:45:13.932Z,2.90
2023-03-25T09:47:14.924Z,4.00
2023-03-25T09:49:15.971Z,3.60
2023-03-25T09:51:16.251Z,3.80
2023-03-25T09:53:16.576Z,2.70
2023-03-25T09:55:16.905Z,3.30
2023-03-25T09:57:17.229Z,3.90
2023-03-25T09:59:17.523Z,4.40
2023-03-25T10:01:17.892Z,2.60
2023-03-25T10:03:18.182Z,3.50
2023-03-25T10:05:18.513Z,2.80
2023-03-25T10:07:18.829Z,2.00
2023-03-25T10:09:19.138Z,2.80
2023-03-25T10:11:19.502Z,3.90
2023-03-25T10:13:20.103Z,4.40
2023-03-25T10:15:20.607Z,4.40
2023-03-25T10:17:21.558Z,5.90
2023-03-25T10:19:21.939Z,6.30
2023-03-25T10:21:22.320Z,3.00
2023-03-25T10:23:22.570Z,4.00
2023-03-25T10:25:22.904Z,3.90
2023-03-25T10:27:23.397Z,3.90
2023-03-25T10:29:24.890Z,4.20
2023-03-25T10:31:25.329Z,3.30
2023-03-25T10:33:25.676Z,4.00
2023-03-25T10:35:30.926Z,3.80
2023-03-25T10:37:31.235Z,4.30
2023-03-25T10:39:31.550Z,4.60
2023-03-25T10:41:31.851Z,3.50
2023-03-25T10:43:32.185Z,4.10
2023-03-25T10:45:32.530Z,3.20
2023-03-25T10:47:32.897Z,4.60
2023-03-25T10:49:33.139Z,2.70
2023-03-25T10:51:33.497Z,3.30
2023-03-25T10:53:33.775Z,4.60
2023-03-25T10:55:34.072Z,4.00
2023-03-25T10:57:34.346Z,2.50
2023-03-25T10:59:34.717Z,1.90
2023-03-25T11:01:35.007Z,2.80
2023-03-25T11:03:36.014Z,5.00
2023-03-25T11:05:36.456Z,6.40
2023-03-25T11:07:37.325Z,9.50
2023-03-25T11:09:37.633Z,8.00
2023-03-25T11:11:37.905Z,5.40
2023-03-25T11:13:38.239Z,4.60
2023-03-25T11:15:38.563Z,3.90
2023-03-25T11:17:38.952Z,4.30
2023-03-25T11:19:39.248Z,5.30
2023-03-25T11:21:39.591Z,4.40
2023-03-25T11:23:39.925Z,3.40
2023-03-25T11:25:40.216Z,2.20
2023-03-25T11:27:40.577Z,4.80
2023-03-25T11:29:40.845Z,3.10
2023-03-25T11:31:41.168Z,2.80
2023-03-25T11:33:41.425Z,4.10
2023-03-25T11:35:41.742Z,2.80
2023-03-25T11:37:42.116Z,2.10
2023-03-25T11:39:42.410Z,3.60
2023-03-25T11:41:42.736Z,2.90
2023-03-25T11:43:42.995Z,3.90
2023-03-25T11:45:43.281Z,2.30
2023-03-25T11:47:43.649Z,1.20
2023-03-25T11:49:43.888Z,9.40
2023-03-25T11:51:44.180Z,2.00
2023-03-25T11:53:44.534Z,2.40
2023-03-25T11:55:45.023Z,1.30
2023-03-25T11:57:45.284Z,2.90
2023-03-25T11:59:45.613Z,2.50
2023-03-25T12:01:45.928Z,3.20
2023-03-25T12:03:46.601Z,3.10
2023-03-25T12:05:47.081Z,2.30
2023-03-25T12:07:47.536Z,3.00
2023-03-25T12:09:47.870Z,2.40
2023-03-25T12:11:48.281Z,3.60
2023-03-25T12:13:49.316Z,3.20
2023-03-25T12:15:50.268Z,2.40
2023-03-25T12:17:50.784Z,2.70
2023-03-25T12:19:51.262Z,2.60
2023-03-25T12:21:56.356Z,4.70
2023-03-25T12:23:56.669Z,3.90
2023-03-25T12:25:56.981Z,4.40
2023-03-25T12:27:57.484Z,3.40
2023-03-25T12:29:57.820Z,3.60
2023-03-25T12:31:58.166Z,3.10
2023-03-25T12:33:58.478Z,5.10
2023-03-25T12:35:59.138Z,3.20
2023-03-25T12:37:59.427Z,3.60
2023-03-25T12:40:00.662Z,2.70
2023-03-25T12:42:02.271Z,3.40
2023-03-25T12:44:03.854Z,3.90
2023-03-25T12:46:04.419Z,3.80
2023-03-25T12:48:04.698Z,2.80
2023-03-25T12:50:04.992Z,2.60
2023-03-25T12:52:05.321Z,4.70
2023-03-25T12:54:05.624Z,2.90
2023-03-25T12:56:05.933Z,2.10
2023-03-25T12:58:06.214Z,3.70
2023-03-25T13:00:06.561Z,3.60
2023-03-25T13:02:06.880Z,2.50
2023-03-25T13:04:07.133Z,2.90
2023-03-25T13:06:07.433Z,4.10
2023-03-25T13:08:07.814Z,2.70
2023-03-25T13:10:08.105Z,3.40
2023-03-25T13:12:08.382Z,4.70
2023-03-25T13:14:08.700Z,4.60
2023-03-25T13:16:09.052Z,3.10
2023-03-25T13:18:09.413Z,4.20
2023-03-25T13:20:09.988Z,3.50
2023-03-25T13:22:10.546Z,2.30
2023-03-25T13:24:10.813Z,3.30
2023-03-25T13:26:11.130Z,2.40
2023-03-25T13:28:11.470Z,3.20
2023-03-25T13:30:11.760Z,2.70
2023-03-25T13:32:12.087Z,4.30
2023-03-25T13:34:12.428Z,2.80
2023-03-25T13:36:12.714Z,2.50
2023-03-25T13:38:13.014Z,3.70
2023-03-25T13:40:13.737Z,2.90
2023-03-25T13:42:14.070Z,2.50
2023-03-25T13:44:14.327Z,4.80
2023-03-25T13:46:14.703Z,2.80
2023-03-25T13:48:15.011Z,3.10
2023-03-25T13:50:15.317Z,2.20
2023-03-25T13:52:15.615Z,4.70
2023-03-25T13:54:15.930Z,2.90
2023-03-25T13:56:16.251Z,2.70
2023-03-25T13:58:16.540Z,3.50
2023-03-25T14:00:16.881Z,3.00
2023-03-25T14:02:17.231Z,2.70
2023-03-25T14:04:17.494Z,3.40
2023-03-25T14:06:17.819Z,4.40
2023-03-25T14:08:18.069Z,2.50
2023-03-25T14:10:18.428Z,3.20
2023-03-25T14:12:18.754Z,3.30
2023-03-25T14:14:19.048Z,2.60
2023-03-25T14:16:19.348Z,4.20
2023-03-25T14:18:19.683Z,4.80
2023-03-25T14:20:19.980Z,2.40
2023-03-25T14:22:20.283Z,3.00
2023-03-25T14:24:20.575Z,3.80
2023-03-25T14:26:20.888Z,3.10
2023-03-25T14:28:21.360Z,2.90
2023-03-25T14:30:21.680Z,3.30
2023-03-25T14:32:22.031Z,2.90
2023-03-25T14:34:22.272Z,4.80
2023-03-25T14:36:22.580Z,4.40
2023-03-25T14:38:22.920Z,3.30
2023-03-25T14:40:23.238Z,5.80
2023-03-25T14:42:23.530Z,3.10
2023-03-25T14:44:23.838Z,3.20
2023-03-25T14:46:24.156Z,3.60
2023-03-25T14:48:25.889Z,6.10
2023-03-25T14:50:26.383Z,2.60
2023-03-25T14:52:26.663Z,3.60
2023-03-25T14:54:27.014Z,6.80
2023-03-25T14:56:27.286Z,3.80
2023-03-25T14:58:27.707Z,3.40
2023-03-25T15:00:29.875Z,4.00
2023-03-25T15:02:30.251Z,3.50
2023-03-25T15:04:30.588Z,4.40
2023-03-25T15:06:30.850Z,3.20
2023-03-25T15:08:31.225Z,4.50
2023-03-25T15:10:31.547Z,2.80
2023-03-25T15:12:31.838Z,2.80
2023-03-25T15:14:32.160Z,4.90
2023-03-25T15:16:32.464Z,5.70
2023-03-25T15:18:32.771Z,5.10
2023-03-25T15:20:33.069Z,3.80
2023-03-25T15:22:33.413Z,4.00
2023-03-25T15:24:33.717Z,5.30
2023-03-25T15:26:34.061Z,4.20
2023-03-25T15:28:34.308Z,3.80
2023-03-25T15:30:34.695Z,3.90
2023-03-25T15:32:34.977Z,4.10
2023-03-25T15:34:35.260Z,4.50
2023-03-25T15:36:35.551Z,5.60
2023-03-25T15:38:35.885Z,3.20
2023-03-25T15:40:36.229Z,3.00
2023-03-25T15:42:36.586Z,5.40
2023-03-25T15:44:36.926Z,4.50
2023-03-25T15:46:37.252Z,5.20
2023-03-25T15:48:37.546Z,3.90
2023-03-25T15:50:37.869Z,3.90
2023-03-25T15:52:38.169Z,2.90
2023-03-25T15:54:38.448Z,2.90
2023-03-25T15:56:38.808Z,4.20
2023-03-25T15:58:40.016Z,5.00
2023-03-25T16:00:40.352Z,2.40
2023-03-25T16:02:40.775Z,3.70
2023-03-25T16:04:41.122Z,4.10
2023-03-25T16:06:41.451Z,4.50
2023-03-25T16:08:41.764Z,4.10
2023-03-25T16:10:42.080Z,3.40
2023-03-25T16:12:42.407Z,4.70
2023-03-25T16:14:42.924Z,3.00
2023-03-25T16:16:43.357Z,3.30
2023-03-25T16:18:43.684Z,3.30
2023-03-25T16:20:43.978Z,3.50
2023-03-25T16:22:44.283Z,4.60
2023-03-25T16:24:44.594Z,6.30
2023-03-25T16:26:45.183Z,5.40
2023-03-25T16:28:45.499Z,4.10
2023-03-25T16:30:45.822Z,4.60
2023-03-25T16:32:46.189Z,3.50
2023-03-25T16:34:46.466Z,4.90
2023-03-25T16:36:46.763Z,7.00
2023-03-25T16:38:47.091Z,6.40
2023-03-25T16:40:47.371Z,5.10
2023-03-25T16:42:47.704Z,3.70
2023-03-25T16:44:48.055Z,4.10
2023-03-25T16:46:48.356Z,4.30
2023-03-25T16:48:49.116Z,4.90
2023-03-25T16:50:49.619Z,5.30
2023-03-25T16:52:49.941Z,4.30
2023-03-25T16:54:50.223Z,3.90
2023-03-25T16:56:50.595Z,3.80
2023-03-25T16:58:50.900Z,5.50
2023-03-25T17:00:51.817Z,4.00
2023-03-25T17:02:52.350Z,4.60
2023-03-25T17:04:55.261Z,4.20
2023-03-25T17:06:57.704Z,6.30
2023-03-25T17:08:58.217Z,5.00
2023-03-25T17:10:58.483Z,4.60
2023-03-25T17:12:58.805Z,6.50
2023-03-25T17:14:59.106Z,4.30
2023-03-25T17:16:59.406Z,4.10
2023-03-25T17:18:59.753Z,2.80
2023-03-25T17:21:00.241Z,3.20
2023-03-25T17:23:00.554Z,2.00
2023-03-25T17:25:00.876Z,3.20
2023-03-25T17:27:01.190Z,2.70
2023-03-25T17:29:01.492Z,3.00
2023-03-25T17:31:01.915Z,1.50
2023-03-25T17:33:03.174Z,4.10
2023-03-25T17:35:03.527Z,3.30
2023-03-25T17:37:03.802Z,5.20
2023-03-25T17:39:04.118Z,4.60
2023-03-25T17:41:04.403Z,5.50
2023-03-25T17:43:04.732Z,3.60
2023-03-25T17:45:05.019Z,5.50
2023-03-25T17:47:05.362Z,6.40
2023-03-25T17:49:06.101Z,3.70
2023-03-25T17:51:06.406Z,5.10
2023-03-25T17:53:06.680Z,5.60
2023-03-25T17:55:07.033Z,4.20
2023-03-25T17:57:07.340Z,3.70
2023-03-25T17:59:07.607Z,5.40
2023-03-25T18:01:07.949Z,3.90
2023-03-25T18:03:08.259Z,5.00
2023-03-25T18:05:08.605Z,3.10
2023-03-25T18:07:08.873Z,3.90
2023-03-25T18:09:09.172Z,4.40
2023-03-25T18:11:09.482Z,3.90
2023-03-25T18:13:09.847Z,4.10
2023-03-25T18:15:10.136Z,2.90
2023-03-25T18:17:10.448Z,2.90
2023-03-25T18:19:10.862Z,3.70
2023-03-25T18:21:11.164Z,2.80
2023-03-25T18:23:11.536Z,2.30
2023-03-25T18:25:11.816Z,3.70
2023-03-25T18:27:12.115Z,2.40
2023-03-25T18:29:12.433Z,3.00
2023-03-25T18:31:12.769Z,2.60
2023-03-25T18:33:13.117Z,3.30
2023-03-25T18:35:13.517Z,2.90
2023-03-25T18:37:13.824Z,5.20
2023-03-25T18:39:14.150Z,2.80
2023-03-25T18:41:14.484Z,3.70
2023-03-25T18:43:14.734Z,4.80
2023-03-25T18:45:15.101Z,2.50
2023-03-25T18:47:15.403Z,3.30
2023-03-25T18:49:15.731Z,4.70
2023-03-25T18:51:16.051Z,2.40
2023-03-25T18:53:16.355Z,2.60
2023-03-25T18:55:16.759Z,3.60
2023-03-25T18:57:17.019Z,3.50
2023-03-25T18:59:17.658Z,2.30
2023-03-25T19:01:18.080Z,2.10
2023-03-25T19:03:18.816Z,2.30
2023-03-25T19:05:19.145Z,2.70
2023-03-25T19:07:19.456Z,2.60
2023-03-25T19:09:19.739Z,3.50
2023-03-25T19:11:22.257Z,1.80
2023-03-25T19:13:22.880Z,2.50
2023-03-25T19:15:28.052Z,2.20
2023-03-25T19:17:28.521Z,2.80
2023-03-25T19:19:28.889Z,2.50
2023-03-25T19:21:29.233Z,2.10
2023-03-25T19:23:29.597Z,3.20
2023-03-25T19:25:30.185Z,2.10
2023-03-25T19:27:30.507Z,3.30
2023-03-25T19:29:30.802Z,2.80
2023-03-25T19:31:31.156Z,2.40
2023-03-25T19:33:31.920Z,4.40
2023-03-25T19:35:35.181Z,2.80
2023-03-25T19:37:35.606Z,2.10
2023-03-25T19:39:36.854Z,2.50
2023-03-25T19:41:37.991Z,2.50
2023-03-25T19:43:38.468Z,2.80
2023-03-25T19:45:38.993Z,4.90
2023-03-25T19:47:42.718Z,1.70
2023-03-25T19:49:44.679Z,2.20
2023-03-25T19:51:45.191Z,2.80
2023-03-25T19:53:45.544Z,2.70
2023-03-25T19:55:47.326Z,4.60
2023-03-25T19:57:47.818Z,6.00
2023-03-25T19:59:48.103Z,2.90
2023-03-25T20:01:48.457Z,3.30
2023-03-25T20:03:48.880Z,2.70
2023-03-25T20:05:49.381Z,4.20
2023-03-25T20:08:34.592Z,1.60
2023-03-25T20:10:34.918Z,3.60
2023-03-25T20:12:35.222Z,4.10
2023-03-25T20:14:35.548Z,2.30
2023-03-25T20:16:35.925Z,3.20
2023-03-25T20:18:36.320Z,1.90
2023-03-25T20:20:36.634Z,2.50
2023-03-25T20:23:18.466Z,2.90
2023-03-25T20:25:18.778Z,3.40
2023-03-25T20:27:19.107Z,4.90
2023-03-25T20:29:19.449Z,3.00
2023-03-25T20:31:19.792Z,3.50
2023-03-25T20:33:20.155Z,5.10
2023-03-25T20:35:20.448Z,3.30
2023-03-25T20:37:20.712Z,3.20
2023-03-25T20:39:21.071Z,3.60
2023-03-25T20:41:21.350Z,2.50
2023-03-25T20:43:21.718Z,2.80
2023-03-25T20:45:22.055Z,3.20
2023-03-25T20:47:22.392Z,2.50
2023-03-25T20:49:22.719Z,3.20
2023-03-25T20:51:23.257Z,2.20
2023-03-25T20:53:23.810Z,4.00
2023-03-25T20:55:24.229Z,4.00
2023-03-25T20:57:24.510Z,1.30
2023-03-25T20:59:24.837Z,3.30
2023-03-25T21:01:25.187Z,2.40
2023-03-25T21:03:25.504Z,4.20
2023-03-25T21:05:25.849Z,1.90
2023-03-25T21:07:26.212Z,1.80
2023-03-25T21:09:26.477Z,2.70
2023-03-25T21:11:26.770Z,2.50
2023-03-25T21:13:27.068Z,2.40
2023-03-25T21:15:27.400Z,2.10
2023-03-25T21:17:27.804Z,4.10
2023-03-25T21:19:28.178Z,1.80
2023-03-25T21:21:28.534Z,3.40
2023-03-25T21:23:28.794Z,2.00
2023-03-25T21:25:29.167Z,2.60
2023-03-25T21:27:38.503Z,2.80
2023-03-25T21:29:34.685Z,3.70
2023-03-25T21:31:35.022Z,3.40
2023-03-25T21:33:35.331Z,3.20
2023-03-25T21:35:35.745Z,3.30
2023-03-25T21:37:36.095Z,3.70
2023-03-25T21:39:36.421Z,5.10
2023-03-25T21:41:36.766Z,4.10
2023-03-25T21:43:37.134Z,3.10
2023-03-25T21:45:37.444Z,4.40
2023-03-25T21:47:37.800Z,3.40
2023-03-25T21:49:38.096Z,4.40
2023-03-25T21:51:38.387Z,4.00
2023-03-25T21:53:38.694Z,7.30
2023-03-25T21:55:38.975Z,5.20
2023-03-25T21:57:39.321Z,5.20
2023-03-25T21:59:39.658Z,7.10
2023-03-25T22:01:40.014Z,5.90
2023-03-25T22:03:40.423Z,4.10
2023-03-25T22:05:40.689Z,5.00
2023-03-25T22:07:41.021Z,6.20
2023-03-25T22:09:41.303Z,5.00
2023-03-25T22:11:41.645Z,4.20
2023-03-25T22:13:42.017Z,5.90
2023-03-25T22:15:42.270Z,4.30
2023-03-25T22:17:42.660Z,5.40
2023-03-25T22:19:42.925Z,5.00
2023-03-25T22:21:43.260Z,4.60
2023-03-25T22:23:43.537Z,4.30
2023-03-25T22:25:43.851Z,5.50
2023-03-25T22:27:44.151Z,4.60
2023-03-25T22:29:44.427Z,5.30
2023-03-25T22:31:44.788Z,4.30
2023-03-25T22:33:45.061Z,4.70
2023-03-25T22:35:45.396Z,5.60
2023-03-25T22:37:46.153Z,7.30
2023-03-25T22:39:46.452Z,3.10
2023-03-25T22:41:46.907Z,4.90
2023-03-25T22:43:47.199Z,4.70
2023-03-25T22:45:47.479Z,3.30
2023-03-25T22:47:47.882Z,5.90
2023-03-25T22:49:48.177Z,5.20
2023-03-25T22:51:48.422Z,5.20
2023-03-25T22:53:48.749Z,4.40
2023-03-25T22:55:49.066Z,5.50
2023-03-25T22:57:49.377Z,5.40
2023-03-25T22:59:49.665Z,5.70
2023-03-25T23:01:50.018Z,4.70
2023-03-25T23:03:50.364Z,6.10
2023-03-25T23:05:50.640Z,6.10
2023-03-25T23:07:50.958Z,7.90
2023-03-25T23:09:51.255Z,5.90
2023-03-25T23:11:51.593Z,6.70
2023-03-25T23:13:51.911Z,6.10
2023-03-25T23:15:52.422Z,5.70
2023-03-25T23:17:53.071Z,8.60
2023-03-25T23:19:53.346Z,6.30
2023-03-25T23:21:53.667Z,6.20
2023-03-25T23:23:54.069Z,7.40
2023-03-25T23:25:54.650Z,6.30
2023-03-25T23:27:55.015Z,7.20
2023-03-25T23:29:55.343Z,7.00
2023-03-25T23:31:55.664Z,8.80
2023-03-25T23:33:55.951Z,7.10
2023-03-25T23:35:56.486Z,6.60
2023-03-25T23:37:56.967Z,9.50
2023-03-25T23:39:57.243Z,6.70
2023-03-25T23:41:57.562Z,6.60
2023-03-25T23:43:57.889Z,6.60
2023-03-25T23:45:58.181Z,8.80
2023-03-25T23:47:58.644Z,7.80
2023-03-25T23:49:58.928Z,7.30
2023-03-25T23:51:59.212Z,5.60
2023-03-25T23:53:59.520Z,7.50
2023-03-25T23:55:59.821Z,8.10
2023-03-25T23:58:00.149Z,4.30
